Time;durP1;ratioP1;P1;durP2;ratioP2;P2;SDS_P1;SDS_P2;PMS_P1;PMS_P2;Temp;Humidity;BMP_temperature;BMP_pressure;BME280_temperature;BME280_humidity;BME280_pressure;Samples;Min_cycle;Max_cycle;Signal;HPM_P1;HPM_P2
2021/09/17 00:01:06;;;;;;;5.03;1.80;;;;;;;15.35;100.00;100394.31;5021224;28;20592;-75
2021/09/17 00:03:32;;;;;;;5.13;1.40;;;;;;;15.37;100.00;100388.81;5037964;28;20263;-74
2021/09/17 00:05:57;;;;;;;3.20;1.17;;;;;;;15.31;100.00;100396.41;5038013;28;20211;-73
2021/09/17 00:08:22;;;;;;;2.97;1.27;;;;;;;15.33;100.00;100399.81;5037639;28;20210;-74
2021/09/17 00:10:47;;;;;;;4.87;1.50;;;;;;;15.35;100.00;100388.94;5021095;28;20200;-73
2021/09/17 00:13:13;;;;;;;2.67;1.37;;;;;;;15.34;100.00;100397.97;5056118;28;20194;-74
2021/09/17 00:15:38;;;;;;;4.97;1.60;;;;;;;15.31;100.00;100385.66;5037858;28;20673;-74
2021/09/17 00:18:03;;;;;;;4.57;1.60;;;;;;;15.38;100.00;100382.47;5037405;28;20241;-74
2021/09/17 00:20:29;;;;;;;3.13;1.40;;;;;;;15.33;100.00;100383.69;5037316;28;20264;-74
2021/09/17 00:22:54;;;;;;;6.17;1.70;;;;;;;15.38;100.00;100379.78;5037617;28;20266;-74
2021/09/17 00:25:19;;;;;;;3.27;1.50;;;;;;;15.35;100.00;100377.34;5021150;28;20218;-74
2021/09/17 00:27:45;;;;;;;2.20;1.43;;;;;;;15.32;100.00;100381.97;5037386;28;20701;-74
2021/09/17 00:30:10;;;;;;;2.20;1.50;;;;;;;15.32;100.00;100381.97;5037010;28;20671;-74
2021/09/17 00:32:35;;;;;;;3.83;1.50;;;;;;;15.28;100.00;100377.81;5037428;28;20177;-74
2021/09/17 00:35:01;;;;;;;3.67;1.47;;;;;;;15.34;100.00;100371.09;5021077;28;20229;-74
2021/09/17 00:37:27;;;;;;;2.93;1.47;;;;;;;15.30;100.00;100375.00;5055996;28;20541;-73
2021/09/17 00:39:52;;;;;;;3.97;1.50;;;;;;;15.35;100.00;100380.03;5054825;28;20192;-74
2021/09/17 00:42:17;;;;;;;4.27;1.70;;;;;;;15.31;100.00;100369.50;5037314;28;20641;-73
2021/09/17 00:44:43;;;;;;;3.30;1.40;;;;;;;15.35;100.00;100371.94;5021275;28;20229;-73
2021/09/17 00:47:08;;;;;;;3.33;1.20;;;;;;;15.35;100.00;100363.88;5037157;28;20206;-73
2021/09/17 00:49:34;;;;;;;7.23;1.50;;;;;;;15.34;100.00;100363.03;5036733;28;20703;-74
2021/09/17 00:52:00;;;;;;;2.47;1.40;;;;;;;15.31;100.00;100357.91;5020745;28;20657;-74
2021/09/17 00:54:26;;;;;;;2.70;1.30;;;;;;;15.29;100.00;100355.34;5037159;28;20541;-74
2021/09/17 00:56:52;;;;;;;3.53;1.57;;;;;;;15.37;100.00;100356.56;5022336;28;20684;-73
2021/09/17 00:59:17;;;;;;;5.53;1.23;;;;;;;15.34;100.00;100344.22;5038577;28;20182;-74
2021/09/17 01:01:43;;;;;;;3.40;1.20;;;;;;;15.32;100.00;100360.47;5056995;28;20198;-74
2021/09/17 01:04:09;;;;;;;4.70;1.20;;;;;;;15.30;100.00;100354.34;5020763;28;20230;-74
2021/09/17 01:06:35;;;;;;;4.07;1.27;;;;;;;15.31;100.00;100366.81;5036829;28;20187;-74
2021/09/17 01:09:04;;;;;;;3.00;1.20;;;;;;;15.27;100.00;100359.97;5020318;28;20167;-74
2021/09/17 01:11:29;;;;;;;2.20;1.13;;;;;;;15.18;100.00;100370.59;5020311;28;20237;-74
2021/09/17 01:13:55;;;;;;;4.43;1.30;;;;;;;15.05;100.00;100376.09;5020302;28;20184;-74
2021/09/17 01:16:20;;;;;;;3.30;1.10;;;;;;;14.94;100.00;100389.53;5036637;28;20171;-73
2021/09/17 01:18:46;;;;;;;2.27;1.00;;;;;;;14.84;100.00;100402.78;5019956;28;20171;-74
2021/09/17 01:21:11;;;;;;;2.40;1.20;;;;;;;14.74;100.00;100403.63;5020102;28;20196;-74
2021/09/17 01:23:36;;;;;;;2.57;1.43;;;;;;;14.63;100.00;100416.06;5036625;28;20230;-74
2021/09/17 01:26:02;;;;;;;5.77;1.30;;;;;;;14.46;100.00;100437.09;5037156;28;20629;-74
2021/09/17 01:28:30;;;;;;;3.93;1.20;;;;;;;14.40;100.00;100451.78;5037154;28;20182;-74
2021/09/17 01:30:57;;;;;;;3.80;1.20;;;;;;;14.23;100.00;100471.00;5036664;28;20239;-74
2021/09/17 01:33:22;;;;;;;4.70;1.40;;;;;;;14.14;100.00;100483.28;5036248;28;20176;-74
2021/09/17 01:35:58;;;;;;;3.27;1.20;;;;;;;13.99;100.00;100492.41;5036402;28;20258;-74
2021/09/17 01:38:24;;;;;;;3.20;1.03;;;;;;;13.93;100.00;100509.81;5035951;28;20728;-74
2021/09/17 01:40:50;;;;;;;6.80;1.20;;;;;;;13.80;100.00;100513.50;5035841;28;20188;-73
2021/09/17 01:43:15;;;;;;;2.10;1.00;;;;;;;13.66;100.00;100520.69;5053628;28;20665;-72
2021/09/17 01:45:40;;;;;;;1.70;1.20;;;;;;;13.48;100.00;100527.34;5035944;28;20668;-73
2021/09/17 01:48:06;;;;;;;2.90;1.17;;;;;;;13.41;100.00;100547.50;5036126;28;20541;-73
2021/09/17 01:50:31;;;;;;;3.17;1.17;;;;;;;13.32;100.00;100565.06;5035718;28;20203;-73
2021/09/17 01:52:56;;;;;;;1.93;1.47;;;;;;;13.36;100.00;100592.50;5035741;28;20617;-73
2021/09/17 01:55:23;;;;;;;2.97;1.60;;;;;;;13.39;100.00;100603.91;5053625;28;20183;-73
2021/09/17 01:57:50;;;;;;;1.40;1.30;;;;;;;13.44;100.00;100601.78;5019257;28;20176;-72
2021/09/17 02:00:15;;;;;;;3.63;0.90;;;;;;;13.51;100.00;100604.03;5035699;28;20278;-72
2021/09/17 02:02:41;;;;;;;2.87;1.97;;;;;;;13.54;100.00;100602.00;5019329;28;20209;-72
2021/09/17 02:05:06;;;;;;;5.57;2.93;;;;;;;13.59;100.00;100599.00;5035560;28;20171;-72
2021/09/17 02:07:32;;;;;;;1.33;1.10;;;;;;;13.59;100.00;100590.94;5035613;28;20191;-71
2021/09/17 02:09:57;;;;;;;2.60;1.00;;;;;;;13.53;100.00;100594.06;5052934;28;20208;-71
2021/09/17 02:12:22;;;;;;;1.70;0.90;;;;;;;13.51;100.00;100583.44;5035610;28;20576;-72
2021/09/17 02:14:48;;;;;;;1.07;0.80;;;;;;;13.44;100.00;100587.50;5053450;28;20175;-72
2021/09/17 02:17:14;;;;;;;1.20;1.10;;;;;;;13.32;100.00;100602.59;5053540;28;20191;-73
2021/09/17 02:19:39;;;;;;;2.37;1.10;;;;;;;13.23;100.00;100608.59;5018894;28;20197;-73
2021/09/17 02:22:04;;;;;;;2.27;1.57;;;;;;;13.24;100.00;100610.28;5053673;28;20187;-73
2021/09/17 02:24:29;;;;;;;2.73;1.30;;;;;;;13.31;100.00;100616.09;5035503;28;20645;-73
2021/09/17 02:26:55;;;;;;;2.60;1.07;;;;;;;13.33;100.00;100622.22;5053707;28;20187;-73
2021/09/17 02:29:20;;;;;;;1.63;0.90;;;;;;;13.36;100.00;100625.53;5053741;28;20322;-73
2021/09/17 02:31:45;;;;;;;1.57;1.00;;;;;;;13.32;100.00;100629.41;5035623;28;20634;-73
2021/09/17 02:34:11;;;;;;;2.47;1.00;;;;;;;13.32;100.00;100618.66;5036800;28;20172;-73
2021/09/17 02:36:36;;;;;;;1.10;0.90;;;;;;;13.40;100.00;100615.50;5036980;28;20179;-73
2021/09/17 02:39:02;;;;;;;1.73;1.13;;;;;;;13.42;100.00;100606.38;5019329;28;20187;-73
2021/09/17 02:41:28;;;;;;;1.33;0.90;;;;;;;13.44;100.00;100606.28;5035831;28;20168;-72
2021/09/17 02:43:53;;;;;;;1.90;0.87;;;;;;;13.40;100.00;100597.59;5035382;28;20183;-73
2021/09/17 02:46:18;;;;;;;1.33;1.00;;;;;;;13.32;100.00;100601.72;5035330;28;20187;-69
2021/09/17 02:48:44;;;;;;;2.03;1.10;;;;;;;13.28;100.00;100595.72;5053230;28;20710;-73
2021/09/17 02:51:11;;;;;;;3.60;1.20;;;;;;;13.27;100.00;100591.31;5035120;28;20737;-72
2021/09/17 02:53:36;;;;;;;1.67;1.40;;;;;;;13.11;100.00;100596.84;5018848;28;20175;-73
2021/09/17 02:56:01;;;;;;;2.93;1.87;;;;;;;13.09;100.00;100593.41;5018910;28;20184;-72
2021/09/17 02:58:26;;;;;;;2.60;1.10;;;;;;;13.11;100.00;100598.66;5035309;28;20665;-72
2021/09/17 03:00:52;;;;;;;9.50;2.03;;;;;;;13.11;100.00;100599.53;5035512;28;20545;-72
2021/09/17 03:03:17;;;;;;;2.50;1.50;;;;;;;13.16;100.00;100604.56;5035378;28;20175;-71
2021/09/17 03:05:44;;;;;;;2.97;1.67;;;;;;;13.13;100.00;100602.09;5035154;28;20186;-72
2021/09/17 03:08:10;;;;;;;2.87;1.70;;;;;;;13.14;100.00;100606.50;5035373;28;20175;-73
2021/09/17 03:10:35;;;;;;;3.17;1.97;;;;;;;13.12;100.00;100606.59;5035560;28;20566;-72
2021/09/17 03:13:01;;;;;;;4.27;1.73;;;;;;;13.11;100.00;100609.38;5023048;28;20183;-73
2021/09/17 03:15:26;;;;;;;4.57;1.60;;;;;;;13.12;100.00;100614.63;5043220;28;20717;-75
2021/09/17 03:17:52;;;;;;;3.80;1.90;;;;;;;13.23;100.00;100597.84;5040243;28;20587;-74
2021/09/17 03:20:18;;;;;;;1.83;1.63;;;;;;;13.26;100.00;100588.75;5047037;28;20184;-76
2021/09/17 03:22:43;;;;;;;3.60;2.00;;;;;;;13.26;100.00;100592.28;5063625;28;20197;-76
2021/09/17 03:25:09;;;;;;;6.50;2.40;;;;;;;13.31;100.00;100575.91;5063093;28;20637;-72
2021/09/17 03:27:34;;;;;;;9.47;2.30;;;;;;;13.30;100.00;100567.00;5033331;28;20245;-72
2021/09/17 03:29:59;;;;;;;8.27;2.10;;;;;;;13.28;100.00;100558.19;5068173;28;20207;-72
2021/09/17 03:32:25;;;;;;;6.87;2.00;;;;;;;13.25;100.00;100546.84;5027844;28;20197;-72
2021/09/17 03:34:50;;;;;;;5.10;2.00;;;;;;;13.21;100.00;100539.97;5040715;28;20172;-72
2021/09/17 03:37:15;;;;;;;5.77;2.37;;;;;;;13.20;100.00;100539.13;5021949;28;20680;-73
2021/09/17 03:39:41;;;;;;;9.67;2.43;;;;;;;13.19;100.00;100537.41;5038337;28;20198;-73
2021/09/17 03:42:06;;;;;;;7.07;1.70;;;;;;;13.20;100.00;100546.28;5022312;28;20176;-74
2021/09/17 03:44:32;;;;;;;6.93;2.20;;;;;;;13.15;100.00;100526.00;5022159;28;20217;-74
2021/09/17 03:46:57;;;;;;;5.83;1.50;;;;;;;13.12;100.00;100530.72;5039538;28;20241;-72
2021/09/17 03:49:22;;;;;;;2.83;1.83;;;;;;;13.08;100.00;100523.84;5021955;28;20206;-74
2021/09/17 03:51:48;;;;;;;4.73;2.10;;;;;;;13.09;100.00;100522.88;5021977;28;20603;-73
2021/09/17 03:54:13;;;;;;;5.13;1.97;;;;;;;13.08;100.00;100514.00;5038597;28;20185;-74
2021/09/17 03:56:38;;;;;;;6.80;2.20;;;;;;;13.03;100.00;100516.13;5039544;28;20555;-73
2021/09/17 03:59:04;;;;;;;7.60;1.97;;;;;;;13.07;100.00;100523.00;5038765;28;20176;-73
2021/09/17 04:01:30;;;;;;;3.80;1.43;;;;;;;13.04;100.00;100517.00;5022256;28;20200;-73
2021/09/17 04:03:55;;;;;;;5.93;2.33;;;;;;;12.98;100.00;100517.38;5022948;28;20180;-75
2021/09/17 04:06:20;;;;;;;5.47;1.60;;;;;;;13.02;100.00;100508.19;5023888;28;20658;-73
2021/09/17 04:08:46;;;;;;;6.60;2.00;;;;;;;13.00;100.00;100510.09;5024425;28;20182;-73
2021/09/17 04:11:11;;;;;;;3.43;1.50;;;;;;;12.96;100.00;100514.81;5059273;28;20207;-73
2021/09/17 04:13:36;;;;;;;4.70;2.00;;;;;;;12.94;100.00;100513.19;5059554;28;20176;-74
2021/09/17 04:16:01;;;;;;;6.47;1.70;;;;;;;12.98;100.00;100515.56;5042218;28;20182;-74
2021/09/17 04:18:27;;;;;;;7.13;1.70;;;;;;;12.99;100.00;100521.78;5044082;28;20175;-73
2021/09/17 04:20:52;;;;;;;1.73;1.60;;;;;;;12.94;100.00;100515.88;5050670;28;20191;-74
2021/09/17 04:23:17;;;;;;;5.17;2.00;;;;;;;12.89;100.00;100508.16;5036868;28;20179;-74
2021/09/17 04:25:43;;;;;;;17.30;10.23;;;;;;;12.83;100.00;100504.06;5056301;28;20176;-74
2021/09/17 04:28:08;;;;;;;4.73;1.73;;;;;;;12.79;100.00;100505.25;5077271;28;20167;-73
2021/09/17 04:30:39;;;;;;;2.33;1.60;;;;;;;12.76;100.00;100516.16;5055017;28;20238;-74
2021/09/17 04:33:05;;;;;;;2.17;1.40;;;;;;;12.77;100.00;100506.31;5045329;28;20281;-74
2021/09/17 04:35:30;;;;;;;5.47;1.47;;;;;;;12.73;100.00;100504.81;5057046;28;20171;-71
2021/09/17 04:37:59;;;;;;;6.13;1.40;;;;;;;12.69;100.00;100505.97;5056047;28;20237;-73
2021/09/17 04:40:25;;;;;;;4.70;1.23;;;;;;;12.64;100.00;100508.09;5038921;28;20661;-72
2021/09/17 04:42:51;;;;;;;1.47;1.33;;;;;;;12.64;100.00;100517.00;5058351;28;20195;-72
2021/09/17 04:45:17;;;;;;;4.80;1.60;;;;;;;12.68;100.00;100521.19;5021429;28;20179;-73
2021/09/17 04:47:42;;;;;;;2.50;1.30;;;;;;;12.66;100.00;100520.41;5021290;28;20596;-73
2021/09/17 04:50:09;;;;;;;3.57;1.43;;;;;;;12.69;100.00;100525.56;5037516;28;20207;-68
2021/09/17 04:52:34;;;;;;;3.57;1.47;;;;;;;12.73;100.00;100535.13;5036949;28;20230;-69
2021/09/17 04:54:59;;;;;;;4.43;1.20;;;;;;;12.71;100.00;100522.78;5020666;28;20199;-70
2021/09/17 04:57:26;;;;;;;3.27;1.40;;;;;;;12.72;100.00;100519.16;5054916;28;20175;-68
2021/09/17 04:59:52;;;;;;;4.27;1.77;;;;;;;12.70;100.00;100529.97;5036928;28;20191;-69
2021/09/17 05:02:17;;;;;;;2.57;1.40;;;;;;;12.72;100.00;100528.03;5036968;28;20179;-69
2021/09/17 05:04:42;;;;;;;9.20;1.50;;;;;;;12.66;100.00;100523.09;5037231;28;20211;-69
2021/09/17 05:07:08;;;;;;;4.20;1.50;;;;;;;12.65;100.00;100532.09;5036813;28;20179;-69
2021/09/17 05:09:33;;;;;;;5.70;1.63;;;;;;;12.66;100.00;100528.44;5036594;28;20199;-68
2021/09/17 05:11:58;;;;;;;5.03;1.63;;;;;;;12.68;100.00;100526.53;5054372;28;20619;-70
2021/09/17 05:14:24;;;;;;;4.83;1.47;;;;;;;12.62;100.00;100524.22;5020204;28;20553;-69
2021/09/17 05:16:49;;;;;;;2.80;1.50;;;;;;;12.63;100.00;100523.28;5036414;28;20176;-68
2021/09/17 05:19:14;;;;;;;1.93;1.37;;;;;;;12.63;100.00;100531.31;5054015;28;20200;-69
2021/09/17 05:21:40;;;;;;;6.00;1.90;;;;;;;12.55;100.00;100524.75;5019912;28;20171;-73
2021/09/17 05:24:05;;;;;;;3.97;1.30;;;;;;;12.56;100.00;100521.97;5020067;28;20262;-72
2021/09/17 05:26:31;;;;;;;2.87;1.30;;;;;;;12.55;100.00;100530.09;5019883;28;20205;-71
2021/09/17 05:28:56;;;;;;;1.33;1.00;;;;;;;12.56;100.00;100535.34;5036517;28;20175;-72
2021/09/17 05:31:21;;;;;;;1.67;0.97;;;;;;;12.51;100.00;100529.44;5037548;28;20582;-75
2021/09/17 05:33:47;;;;;;;2.20;1.10;;;;;;;12.46;100.00;100531.56;5019759;28;20187;-74
2021/09/17 05:36:12;;;;;;;3.07;1.00;;;;;;;12.47;100.00;100534.16;5020304;28;20182;-74
2021/09/17 05:38:38;;;;;;;1.30;1.10;;;;;;;12.44;100.00;100533.50;5038455;28;20179;-75
2021/09/17 05:41:03;;;;;;;2.73;0.90;;;;;;;12.43;100.00;100547.84;5022448;28;20203;-77
2021/09/17 05:43:28;;;;;;;1.83;0.77;;;;;;;12.44;100.00;100554.91;5037898;28;20176;-71
2021/09/17 05:45:54;;;;;;;2.60;1.03;;;;;;;12.44;100.00;100554.91;5037016;28;20506;-73
2021/09/17 05:48:19;;;;;;;2.10;1.03;;;;;;;12.38;100.00;100542.78;5037440;28;20696;-73
2021/09/17 05:50:44;;;;;;;4.03;1.07;;;;;;;12.44;100.00;100552.22;5055406;28;20234;-74
2021/09/17 05:53:10;;;;;;;2.20;1.00;;;;;;;12.46;100.00;100558.34;5020336;28;20290;-72
2021/09/17 05:55:36;;;;;;;1.07;1.03;;;;;;;12.51;100.00;100558.88;5036504;28;20168;-71
2021/09/17 05:58:01;;;;;;;5.03;1.83;;;;;;;12.53;100.00;100557.84;5020236;28;20278;-74
2021/09/17 06:00:27;;;;;;;2.00;1.10;;;;;;;12.54;100.00;100550.66;5037354;28;20285;-74
2021/09/17 06:02:52;;;;;;;3.70;1.20;;;;;;;12.57;100.00;100547.78;5036586;28;20171;-73
2021/09/17 06:05:17;;;;;;;3.90;2.27;;;;;;;12.53;100.00;100559.66;5037001;28;20648;-71
2021/09/17 06:07:44;;;;;;;2.43;1.13;;;;;;;12.47;100.00;100560.06;5035591;28;20175;-72
2021/09/17 06:10:10;;;;;;;1.73;1.20;;;;;;;12.46;100.00;100553.84;5019073;28;20207;-73
2021/09/17 06:12:36;;;;;;;1.43;1.10;;;;;;;12.37;100.00;100546.41;5035404;28;20270;-73
2021/09/17 06:15:01;;;;;;;1.80;1.10;;;;;;;12.44;100.00;100538.84;5019336;28;20262;-73
2021/09/17 06:17:26;;;;;;;1.77;1.30;;;;;;;12.44;100.00;100554.91;5035833;28;20249;-72
2021/09/17 06:19:52;;;;;;;1.30;1.20;;;;;;;12.47;100.00;100562.72;5035411;28;20199;-73
2021/09/17 06:22:17;;;;;;;1.83;1.60;;;;;;;12.50;100.00;100552.69;5035609;28;20176;-73
2021/09/17 06:24:42;;;;;;;2.40;1.40;;;;;;;12.48;100.00;100546.56;5053275;28;20341;-72
2021/09/17 06:27:08;;;;;;;4.30;1.70;;;;;;;12.46;100.00;100547.63;5035676;28;20175;-73
2021/09/17 06:29:33;;;;;;;2.60;1.60;;;;;;;12.40;100.00;100550.72;5018665;28;20211;-73
2021/09/17 06:31:58;;;;;;;2.47;1.30;;;;;;;12.52;100.00;100563.28;5053422;28;20264;-73
2021/09/17 06:34:24;;;;;;;5.33;2.23;;;;;;;12.51;100.00;100559.75;5035464;28;20176;-74
2021/09/17 06:36:49;;;;;;;2.40;1.67;;;;;;;12.47;100.00;100560.06;5019037;28;20651;-73
2021/09/17 06:39:17;;;;;;;1.80;1.70;;;;;;;12.47;100.00;100562.72;5053374;28;20175;-75
2021/09/17 06:41:42;;;;;;;3.13;1.60;;;;;;;12.50;100.00;100559.84;5036030;28;20175;-72
2021/09/17 06:44:08;;;;;;;1.23;1.13;;;;;;;12.51;100.00;100558.88;5019066;28;20172;-74
2021/09/17 06:46:33;;;;;;;3.03;1.70;;;;;;;12.48;100.00;100545.72;5035458;28;20267;-73
2021/09/17 06:48:58;;;;;;;1.57;1.40;;;;;;;12.48;100.00;100559.09;5035402;28;20180;-73
2021/09/17 06:51:24;;;;;;;4.10;1.53;;;;;;;12.56;100.00;100547.88;5035947;28;20207;-71
2021/09/17 06:53:49;;;;;;;2.20;1.70;;;;;;;12.60;100.00;100549.41;5035693;28;20171;-72
2021/09/17 06:56:14;;;;;;;2.40;1.40;;;;;;;12.51;100.00;100538.34;5035214;28;20190;-71
2021/09/17 06:58:40;;;;;;;2.13;1.43;;;;;;;12.61;100.00;100543.94;5039761;28;20177;-73
2021/09/17 07:01:05;;;;;;;1.37;1.23;;;;;;;12.66;100.00;100549.03;5024834;28;20684;-72
2021/09/17 07:03:31;;;;;;;1.50;1.33;;;;;;;12.55;100.00;100543.50;5040003;28;20533;-74
2021/09/17 07:05:56;;;;;;;1.97;1.27;;;;;;;12.59;100.00;100536.97;5039346;28;20664;-71
2021/09/17 07:08:21;;;;;;;2.70;1.20;;;;;;;12.60;100.00;100547.56;5056795;28;20172;-72
2021/09/17 07:10:48;;;;;;;1.40;1.30;;;;;;;12.60;100.00;100541.38;5023191;28;20677;-72
2021/09/17 07:13:13;;;;;;;3.03;1.37;;;;;;;12.56;100.00;100546.06;5040189;28;20288;-72
2021/09/17 07:15:39;;;;;;;1.30;1.20;;;;;;;12.67;100.00;100546.25;5039925;28;20603;-72
2021/09/17 07:18:05;;;;;;;1.80;1.00;;;;;;;12.70;100.00;100543.34;5038900;28;20183;-72
2021/09/17 07:20:30;;;;;;;1.70;1.13;;;;;;;12.74;100.00;100535.97;5039350;28;20705;-72
2021/09/17 07:22:56;;;;;;;1.27;1.00;;;;;;;12.74;100.00;100544.88;5022472;28;20176;-72
2021/09/17 07:25:21;;;;;;;1.60;1.10;;;;;;;12.78;100.00;100542.84;5056616;28;20168;-72
2021/09/17 07:27:47;;;;;;;0.77;0.70;;;;;;;12.80;100.00;100533.75;5022291;28;20175;-72
2021/09/17 07:30:13;;;;;;;0.80;0.80;;;;;;;12.85;100.00;100514.69;5022056;28;20218;-72
2021/09/17 07:32:38;;;;;;;1.73;1.00;;;;;;;12.94;100.00;100534.63;5021827;28;20176;-73
2021/09/17 07:35:04;;;;;;;4.53;0.80;;;;;;;12.88;100.00;100527.88;5022558;28;20183;-73
2021/09/17 07:37:30;;;;;;;0.70;0.70;;;;;;;12.82;100.00;100525.59;5056394;28;20748;-71
2021/09/17 07:39:55;;;;;;;0.63;0.63;;;;;;;12.76;100.00;100528.69;5021717;28;20275;-70
2021/09/17 07:42:20;;;;;;;5.33;0.70;;;;;;;12.79;100.00;100534.69;5038670;28;20167;-71
2021/09/17 07:44:46;;;;;;;3.90;0.60;;;;;;;12.94;100.00;100548.00;5038682;28;20168;-70
2021/09/17 07:47:11;;;;;;;1.43;0.73;;;;;;;12.97;100.00;100562.06;5038506;28;20172;-71
2021/09/17 07:49:36;;;;;;;2.43;0.53;;;;;;;12.91;100.00;100543.72;5038478;28;20204;-72
2021/09/17 07:52:02;;;;;;;0.87;0.60;;;;;;;12.90;100.00;100538.47;5056406;28;20209;-71
2021/09/17 07:54:27;;;;;;;1.00;0.50;;;;;;;12.88;100.00;100535.03;5038544;28;20541;-70
2021/09/17 07:56:53;;;;;;;0.47;0.40;;;;;;;12.91;100.00;100521.44;5056460;28;20687;-72
2021/09/17 07:59:19;;;;;;;0.50;0.50;;;;;;;12.88;100.00;100538.56;5038858;28;20214;-71
2021/09/17 08:01:45;;;;;;;1.13;0.50;;;;;;;12.91;100.00;100548.22;5023114;28;20225;-72
2021/09/17 08:04:10;;;;;;;0.83;0.60;;;;;;;13.03;100.00;100548.28;5039916;28;20182;-72
2021/09/17 08:06:35;;;;;;;0.63;0.63;;;;;;;13.14;100.00;100544.88;5038939;28;20187;-72
2021/09/17 08:09:00;;;;;;;0.63;0.63;;;;;;;13.05;100.00;100549.03;5037378;28;20168;-71
2021/09/17 08:11:26;;;;;;;0.70;0.50;;;;;;;13.24;100.00;100555.84;5037682;28;20206;-71
2021/09/17 08:13:51;;;;;;;0.87;0.70;;;;;;;13.30;100.00;100545.56;5055928;28;20175;-71
2021/09/17 08:16:16;;;;;;;0.60;0.60;;;;;;;13.25;100.00;100530.75;5037567;28;20167;-71
2021/09/17 08:18:44;;;;;;;3.67;1.53;;;;;;;13.33;100.00;100536.44;5021420;28;20177;-71
2021/09/17 08:21:10;;;;;;;1.07;0.57;;;;;;;13.38;100.00;100536.97;5037464;28;20192;-71
2021/09/17 08:23:35;;;;;;;3.30;1.00;;;;;;;13.53;100.00;100540.44;5021041;28;20183;-72
2021/09/17 08:26:03;;;;;;;1.60;0.47;;;;;;;13.53;100.00;100545.78;5055646;28;20664;-71
2021/09/17 08:28:28;;;;;;;2.20;0.40;;;;;;;13.51;100.00;100543.22;5037774;28;20175;-71
2021/09/17 08:30:55;;;;;;;1.40;0.40;;;;;;;13.39;100.00;100528.84;5021037;28;20808;-71
2021/09/17 08:33:20;;;;;;;0.57;0.57;;;;;;;13.33;100.00;100545.34;5038728;28;20176;-71
2021/09/17 08:35:45;;;;;;;0.83;0.40;;;;;;;13.39;100.00;100534.22;5037856;28;20171;-71
2021/09/17 08:38:11;;;;;;;0.40;0.40;;;;;;;13.32;100.00;100542.75;5020686;28;20171;-72
2021/09/17 08:40:36;;;;;;;2.40;0.50;;;;;;;13.46;100.00;100553.41;5036922;28;20191;-72
2021/09/17 08:43:02;;;;;;;1.13;0.50;;;;;;;13.58;100.00;100538.28;5037378;28;20218;-71
2021/09/17 08:45:28;;;;;;;0.30;0.30;;;;;;;13.39;100.00;100542.25;5037786;28;20179;-73
2021/09/17 08:47:53;;;;;;;0.93;0.50;;;;;;;13.60;100.00;100528.31;5037157;28;20176;-71
2021/09/17 08:50:19;;;;;;;1.47;0.40;;;;;;;13.68;100.00;100528.63;5036904;28;20784;-72
2021/09/17 08:52:45;;;;;;;0.20;0.20;;;;;;;14.14;100.00;100495.84;5036770;28;20183;-71
2021/09/17 08:55:11;;;;;;;0.57;0.30;;;;;;;14.37;100.00;100489.63;5036818;28;20249;-72
2021/09/17 08:57:36;;;;;;;0.47;0.20;;;;;;;14.84;100.00;100479.84;5036836;28;20261;-72
2021/09/17 09:00:05;;;;;;;0.70;0.20;;;;;;;15.00;100.00;100475.03;5020195;28;20217;-71
2021/09/17 09:02:31;;;;;;;0.30;0.30;;;;;;;14.89;100.00;100469.63;5019916;28;20186;-72
2021/09/17 09:05:01;;;;;;;0.37;0.30;;;;;;;14.71;100.00;100469.19;5036970;28;20172;-72
2021/09/17 09:07:29;;;;;;;0.20;0.20;;;;;;;15.31;100.00;100471.69;5054424;28;20177;-71
2021/09/17 09:09:54;;;;;;;0.30;0.20;;;;;;;15.71;100.00;100411.22;5036446;28;20211;-72
2021/09/17 09:12:20;;;;;;;2.57;0.30;;;;;;;15.14;100.00;100414.81;5020003;28;20184;-72
2021/09/17 09:14:45;;;;;;;0.37;0.30;;;;;;;15.28;100.00;100399.34;5036480;28;20182;-72
2021/09/17 09:17:11;;;;;;;0.60;0.40;;;;;;;15.33;100.00;100407.88;5020394;28;20186;-71
2021/09/17 09:19:38;;;;;;;1.00;0.40;;;;;;;15.16;100.00;100402.13;5036488;28;20196;-69
2021/09/17 09:22:03;;;;;;;0.33;0.30;;;;;;;15.04;100.00;100390.50;5024140;28;20176;-73
2021/09/17 09:24:29;;;;;;;0.93;0.30;;;;;;;15.05;100.00;100407.47;5053968;28;20173;-71
2021/09/17 09:27:22;;;;;;;2.03;0.43;;;;;;;15.66;100.00;100389.19;5019846;28;20171;-72
2021/09/17 09:29:52;;;;;;;1.47;1.03;;;;;;;16.19;96.99;100360.56;5038763;28;20588;-72
2021/09/17 09:32:25;;;;;;;1.60;1.07;;;;;;;16.18;91.91;100334.63;5054179;28;20184;-72
2021/09/17 09:34:55;;;;;;;1.53;0.70;;;;;;;16.31;90.19;100321.81;5036695;28;20198;-72
2021/09/17 09:37:23;;;;;;;1.70;0.30;;;;;;;15.92;92.98;100356.47;5037847;28;20187;-73
2021/09/17 09:40:00;;;;;;;1.40;0.63;;;;;;;16.07;91.12;100335.53;5037009;28;20188;-74
2021/09/17 09:42:41;;;;;;;2.40;0.50;;;;;;;16.02;90.19;100313.53;5021748;28;20187;-71
2021/09/17 09:45:22;;;;;;;1.97;0.40;;;;;;;15.85;90.27;100320.28;5020313;28;20172;-71
2021/09/17 09:47:54;;;;;;;0.30;0.23;;;;;;;15.81;91.36;100318.84;5036957;28;20247;-72
2021/09/17 09:50:23;;;;;;;1.33;0.60;;;;;;;15.93;92.10;100339.34;5037894;28;20209;-71
2021/09/17 09:52:59;;;;;;;0.83;0.50;;;;;;;15.85;92.12;100339.13;5038258;28;20175;-72
2021/09/17 09:55:25;;;;;;;0.40;0.30;;;;;;;16.32;92.23;100345.06;5036833;28;20169;-70
2021/09/17 09:57:51;;;;;;;1.20;0.30;;;;;;;16.46;89.70;100323.22;5036123;28;20250;-72
2021/09/17 10:00:16;;;;;;;1.43;0.60;;;;;;;16.62;85.54;100311.13;5037741;28;20243;-72
2021/09/17 10:02:43;;;;;;;1.03;0.30;;;;;;;16.15;86.32;100305.25;5035817;28;20180;-72
2021/09/17 10:05:12;;;;;;;2.27;0.40;;;;;;;15.45;90.87;100338.81;5035581;28;20226;-71
2021/09/17 10:07:38;;;;;;;0.47;0.23;;;;;;;15.27;93.70;100357.28;5019136;28;20592;-71
2021/09/17 10:10:06;;;;;;;3.87;0.40;;;;;;;15.22;94.01;100364.84;5035212;28;20250;-71
2021/09/17 10:12:31;;;;;;;0.50;0.50;;;;;;;15.68;92.14;100347.75;5035460;28;20182;-71
2021/09/17 10:14:57;;;;;;;0.57;0.30;;;;;;;15.82;91.13;100342.06;5018942;28;20180;-71
2021/09/17 10:17:29;;;;;;;0.63;0.43;;;;;;;16.43;86.13;100314.56;5035949;28;20176;-72
2021/09/17 10:19:56;;;;;;;1.53;0.40;;;;;;;16.45;85.63;100313.44;5018649;28;20281;-70
2021/09/17 10:22:43;;;;;;;0.27;0.23;;;;;;;16.00;86.33;100314.63;5018728;28;20182;-72
2021/09/17 10:25:20;;;;;;;0.33;0.23;;;;;;;15.89;87.00;100316.38;5035651;28;20151;-72
2021/09/17 10:28:00;;;;;;;2.20;0.50;;;;;;;15.98;86.87;100317.41;5035439;28;20690;-71
2021/09/17 10:30:30;;;;;;;0.63;0.63;;;;;;;15.51;87.43;100308.72;5035134;28;20660;-71
2021/09/17 10:32:55;;;;;;;1.77;0.30;;;;;;;16.05;87.75;100329.41;5035249;28;20179;-70
2021/09/17 10:35:27;;;;;;;2.63;0.47;;;;;;;17.07;85.15;100325.16;5035586;28;20221;-72
2021/09/17 10:37:54;;;;;;;1.60;0.30;;;;;;;18.14;80.66;100305.56;5036358;28;20179;-71
2021/09/17 10:40:33;;;;;;;0.40;0.40;;;;;;;18.53;76.50;100292.00;5018687;28;20194;-72
2021/09/17 10:43:13;;;;;;;0.73;0.37;;;;;;;17.54;79.99;100310.16;5053862;28;20633;-72
2021/09/17 10:45:40;;;;;;;1.47;0.70;;;;;;;16.43;84.85;100336.09;5038760;28;20195;-73
2021/09/17 10:48:07;;;;;;;0.40;0.30;;;;;;;15.73;89.89;100358.97;5037364;28;20180;-72
2021/09/17 10:50:40;;;;;;;0.97;0.40;;;;;;;15.79;89.92;100355.78;5021826;28;20284;-72
2021/09/17 10:53:05;;;;;;;0.80;0.60;;;;;;;15.92;88.48;100347.53;5019047;28;20172;-72
2021/09/17 10:55:51;;;;;;;0.70;0.43;;;;;;;15.61;88.21;100343.84;5035329;28;20179;-71
2021/09/17 10:58:26;;;;;;;3.60;0.50;;;;;;;16.03;86.57;100330.53;5053400;28;20282;-72
2021/09/17 11:00:53;;;;;;;0.70;0.50;;;;;;;15.29;89.40;100355.34;5019541;28;20258;-72
2021/09/17 11:03:37;;;;;;;0.60;0.40;;;;;;;15.66;88.78;100341.63;5035643;28;20183;-72
2021/09/17 11:09:05;;;;;;;1.40;0.60;;;;;;;15.33;88.09;100335.28;5053605;28;20175;-72
2021/09/17 11:11:48;;;;;;;3.20;0.53;;;;;;;16.03;86.88;100338.59;5035198;28;20184;-72
2021/09/17 11:14:13;;;;;;;0.40;0.40;;;;;;;15.90;88.39;100358.44;5020715;28;20167;-73
2021/09/17 11:16:38;;;;;;;2.37;0.50;;;;;;;15.53;89.38;100363.25;5053548;28;20705;-71
2021/09/17 11:19:06;;;;;;;0.20;0.20;;;;;;;14.42;96.11;100389.94;5036381;28;20183;-74